sensor_id;sensor_type;location;lat;lon;timestamp;pressure;altitude;pressure_sealevel;temperature;humidity
75146;BME280;63641;46.526;24.612;2023-09-19T00:00:21;97474.06;;;14.78;66.97
75146;BME280;63641;46.526;24.612;2023-09-19T00:02:55;97467.09;;;14.71;67.06
75146;BME280;63641;46.526;24.612;2023-09-19T00:05:27;97466.28;;;14.71;67.25
75146;BME280;63641;46.526;24.612;2023-09-19T00:07:56;97456.31;;;14.66;67.04
75146;BME280;63641;46.526;24.612;2023-09-19T00:10:25;97463.34;;;14.67;67.10
75146;BME280;63641;46.526;24.612;2023-09-19T00:12:54;97464.56;;;14.61;67.00
75146;BME280;63641;46.526;24.612;2023-09-19T00:15:26;97458.31;;;14.61;67.09
75146;BME280;63641;46.526;24.612;2023-09-19T00:17:57;97463.56;;;14.57;67.14
75146;BME280;63641;46.526;24.612;2023-09-19T00:20:23;97460.84;;;14.57;67.17
75146;BME280;63641;46.526;24.612;2023-09-19T00:22:51;97453.59;;;14.53;67.33
75146;BME280;63641;46.526;24.612;2023-09-19T00:25:21;97458.81;;;14.49;67.40
75146;BME280;63641;46.526;24.612;2023-09-19T00:27:47;97438.34;;;14.38;67.37
75146;BME280;63641;46.526;24.612;2023-09-19T00:30:16;97454.66;;;14.38;67.73
75146;BME280;63641;46.526;24.612;2023-09-19T00:32:48;97459.91;;;14.34;67.67
75146;BME280;63641;46.526;24.612;2023-09-19T00:35:15;97442.97;;;14.23;67.73
75146;BME280;63641;46.526;24.612;2023-09-19T00:37:42;97448.94;;;14.25;67.82
75146;BME280;63641;46.526;24.612;2023-09-19T00:40:10;97450.44;;;14.18;67.90
75146;BME280;63641;46.526;24.612;2023-09-19T00:42:43;97459.09;;;14.20;68.26
75146;BME280;63641;46.526;24.612;2023-09-19T00:45:11;97452.34;;;14.17;67.95
75146;BME280;63641;46.526;24.612;2023-09-19T00:47:48;97448.13;;;14.11;68.05
75146;BME280;63641;46.526;24.612;2023-09-19T00:50:22;97446.78;;;14.09;68.30
75146;BME280;63641;46.526;24.612;2023-09-19T00:52:52;97428.25;;;13.97;68.39
75146;BME280;63641;46.526;24.612;2023-09-19T00:55:20;97422.06;;;13.91;68.30
75146;BME280;63641;46.526;24.612;2023-09-19T00:57:47;97427.50;;;13.91;68.38
75146;BME280;63641;46.526;24.612;2023-09-19T01:00:17;97428.94;;;13.89;68.50
75146;BME280;63641;46.526;24.612;2023-09-19T01:02:46;97425.22;;;13.85;68.49
75146;BME280;63641;46.526;24.612;2023-09-19T01:05:14;97424.59;;;13.88;68.53
75146;BME280;63641;46.526;24.612;2023-09-19T01:07:41;97424.38;;;13.84;68.64
75146;BME280;63641;46.526;24.612;2023-09-19T01:10:10;97403.41;;;13.71;68.73
75146;BME280;63641;46.526;24.612;2023-09-19T01:15:21;97414.59;;;13.69;68.89
75146;BME280;63641;46.526;24.612;2023-09-19T01:18:02;97418.13;;;13.70;68.90
75146;BME280;63641;46.526;24.612;2023-09-19T01:20:42;97419.75;;;13.71;68.96
75146;BME280;63641;46.526;24.612;2023-09-19T01:23:18;97418.72;;;13.67;68.85
75146;BME280;63641;46.526;24.612;2023-09-19T01:26:07;97413.28;;;13.67;68.84
75146;BME280;63641;46.526;24.612;2023-09-19T01:29:01;97407.13;;;13.61;69.06
75146;BME280;63641;46.526;24.612;2023-09-19T01:31:40;97408.81;;;13.57;69.00
75146;BME280;63641;46.526;24.612;2023-09-19T01:34:09;97394.22;;;13.53;69.02
75146;BME280;63641;46.526;24.612;2023-09-19T01:36:36;97387.78;;;13.49;69.20
75146;BME280;63641;46.526;24.612;2023-09-19T01:39:07;97368.81;;;13.44;69.29
75146;BME280;63641;46.526;24.612;2023-09-19T01:41:40;97370.13;;;13.46;69.38
75146;BME280;63641;46.526;24.612;2023-09-19T01:44:09;97373.44;;;13.43;69.53
75146;BME280;63641;46.526;24.612;2023-09-19T01:46:40;97378.59;;;13.45;69.68
75146;BME280;63641;46.526;24.612;2023-09-19T01:52:10;97360.97;;;13.42;69.66
75146;BME280;63641;46.526;24.612;2023-09-19T01:54:46;97364.91;;;13.50;69.79
75146;BME280;63641;46.526;24.612;2023-09-19T01:57:16;97365.72;;;13.50;69.68
75146;BME280;63641;46.526;24.612;2023-09-19T01:59:59;97366.31;;;13.47;69.59
75146;BME280;63641;46.526;24.612;2023-09-19T02:02:27;97366.31;;;13.47;69.62
75146;BME280;63641;46.526;24.612;2023-09-19T02:04:56;97364.69;;;13.46;69.71
75146;BME280;63641;46.526;24.612;2023-09-19T02:07:23;97373.59;;;13.52;69.72
75146;BME280;63641;46.526;24.612;2023-09-19T02:09:49;97371.75;;;13.47;69.91
75146;BME280;63641;46.526;24.612;2023-09-19T02:12:16;97378.59;;;13.45;69.98
75146;BME280;63641;46.526;24.612;2023-09-19T02:14:43;97373.66;;;13.47;69.94
75146;BME280;63641;46.526;24.612;2023-09-19T02:17:10;97369.44;;;13.41;70.01
75146;BME280;63641;46.526;24.612;2023-09-19T02:19:38;97371.13;;;13.37;70.35
75146;BME280;63641;46.526;24.612;2023-09-19T02:22:05;97366.50;;;13.37;70.46
75146;BME280;63641;46.526;24.612;2023-09-19T02:24:34;97363.56;;;13.34;70.41
75146;BME280;63641;46.526;24.612;2023-09-19T02:27:01;97351.06;;;13.33;70.58
75146;BME280;63641;46.526;24.612;2023-09-19T02:29:31;97358.63;;;13.36;70.68
75146;BME280;63641;46.526;24.612;2023-09-19T02:31:58;97354.00;;;13.36;70.97
75146;BME280;63641;46.526;24.612;2023-09-19T02:34:25;97343.97;;;13.37;70.85
75146;BME280;63641;46.526;24.612;2023-09-19T02:36:52;97338.53;;;13.37;71.11
75146;BME280;63641;46.526;24.612;2023-09-19T02:39:21;97336.59;;;13.37;70.89
75146;BME280;63641;46.526;24.612;2023-09-19T02:41:48;97328.03;;;13.44;71.00
75146;BME280;63641;46.526;24.612;2023-09-19T02:44:15;97321.22;;;13.46;71.02
75146;BME280;63641;46.526;24.612;2023-09-19T02:46:41;97318.50;;;13.46;71.08
75146;BME280;63641;46.526;24.612;2023-09-19T02:49:09;97314.59;;;13.52;70.91
75146;BME280;63641;46.526;24.612;2023-09-19T02:51:35;97311.56;;;13.54;70.85
75146;BME280;63641;46.526;24.612;2023-09-19T02:54:02;97301.88;;;13.62;70.57
75146;BME280;63641;46.526;24.612;2023-09-19T02:56:30;97293.66;;;13.67;70.21
75146;BME280;63641;46.526;24.612;2023-09-19T02:58:58;97274.81;;;13.70;69.75
75146;BME280;63641;46.526;24.612;2023-09-19T03:01:27;97284.97;;;13.78;69.66
75146;BME280;63641;46.526;24.612;2023-09-19T03:03:57;97290.63;;;13.96;69.40
75146;BME280;63641;46.526;24.612;2023-09-19T03:06:24;97287.78;;;14.01;69.23
75146;BME280;63641;46.526;24.612;2023-09-19T03:08:53;97285.25;;;14.05;69.40
75146;BME280;63641;46.526;24.612;2023-09-19T03:11:22;97259.78;;;13.87;69.31
75146;BME280;63641;46.526;24.612;2023-09-19T03:13:53;97285.06;;;14.15;69.40
75146;BME280;63641;46.526;24.612;2023-09-19T03:16:20;97289.88;;;14.18;69.10
75146;BME280;63641;46.526;24.612;2023-09-19T03:18:51;97270.75;;;14.09;69.07
75146;BME280;63641;46.526;24.612;2023-09-19T03:21:18;97289.97;;;14.26;68.95
75146;BME280;63641;46.526;24.612;2023-09-19T03:23:45;97288.56;;;14.29;68.91
75146;BME280;63641;46.526;24.612;2023-09-19T03:26:13;97287.63;;;14.34;68.54
75146;BME280;63641;46.526;24.612;2023-09-19T03:28:42;97295.78;;;14.34;68.88
75146;BME280;63641;46.526;24.612;2023-09-19T03:31:10;97302.75;;;14.40;68.69
75146;BME280;63641;46.526;24.612;2023-09-19T03:33:37;97291.66;;;14.36;68.88
75146;BME280;63641;46.526;24.612;2023-09-19T03:36:04;97279.47;;;14.34;68.99
75146;BME280;63641;46.526;24.612;2023-09-19T03:38:32;97297.19;;;14.45;68.99
75146;BME280;63641;46.526;24.612;2023-09-19T03:41:01;97291.41;;;14.46;69.34
75146;BME280;63641;46.526;24.612;2023-09-19T03:43:28;97289.31;;;14.43;69.36
75146;BME280;63641;46.526;24.612;2023-09-19T03:45:55;97292.53;;;14.45;69.43
75146;BME280;63641;46.526;24.612;2023-09-19T03:48:22;97291.94;;;14.48;69.58
75146;BME280;63641;46.526;24.612;2023-09-19T03:50:49;97291.13;;;14.48;69.74
75146;BME280;63641;46.526;24.612;2023-09-19T03:53:16;97297.38;;;14.48;69.95
75146;BME280;63641;46.526;24.612;2023-09-19T03:55:45;97285.16;;;14.46;69.90
75146;BME280;63641;46.526;24.612;2023-09-19T03:58:12;97286.47;;;14.48;69.78
75146;BME280;63641;46.526;24.612;2023-09-19T04:00:40;97279.72;;;14.46;70.01
75146;BME280;63641;46.526;24.612;2023-09-19T04:03:07;97288.63;;;14.52;69.62
75146;BME280;63641;46.526;24.612;2023-09-19T04:05:34;97284.47;;;14.54;69.64
75146;BME280;63641;46.526;24.612;2023-09-19T04:08:01;97272.56;;;14.50;70.03
75146;BME280;63641;46.526;24.612;2023-09-19T04:10:28;97283.03;;;14.57;69.85
75146;BME280;63641;46.526;24.612;2023-09-19T04:12:55;97287.88;;;14.60;69.84
75146;BME280;63641;46.526;24.612;2023-09-19T04:15:23;97290.28;;;14.61;69.48
75146;BME280;63641;46.526;24.612;2023-09-19T04:17:51;97275.06;;;14.60;69.68
75146;BME280;63641;46.526;24.612;2023-09-19T04:20:18;97265.72;;;14.53;69.96
75146;BME280;63641;46.526;24.612;2023-09-19T04:22:51;97281.03;;;14.62;70.03
75146;BME280;63641;46.526;24.612;2023-09-19T04:25:18;97276.06;;;14.64;70.30
75146;BME280;63641;46.526;24.612;2023-09-19T04:27:45;97263.56;;;14.63;70.33
75146;BME280;63641;46.526;24.612;2023-09-19T04:30:13;97258.72;;;14.60;70.34
75146;BME280;63641;46.526;24.612;2023-09-19T04:32:41;97257.78;;;14.65;70.33
75146;BME280;63641;46.526;24.612;2023-09-19T04:35:08;97256.38;;;14.67;69.91
75146;BME280;63641;46.526;24.612;2023-09-19T04:37:40;97253.53;;;14.72;69.49
75146;BME280;63641;46.526;24.612;2023-09-19T04:40:09;97245.31;;;14.64;69.25
75146;BME280;63641;46.526;24.612;2023-09-19T04:42:42;97261.88;;;14.76;69.11
75146;BME280;63641;46.526;24.612;2023-09-19T04:45:10;97256.75;;;14.74;69.02
75146;BME280;63641;46.526;24.612;2023-09-19T04:47:38;97268.41;;;14.89;68.69
75146;BME280;63641;46.526;24.612;2023-09-19T04:50:09;97286.09;;;15.00;68.42
75146;BME280;63641;46.526;24.612;2023-09-19T04:52:41;97278.41;;;15.02;68.23
75146;BME280;63641;46.526;24.612;2023-09-19T04:55:13;97261.91;;;14.98;68.06
75146;BME280;63641;46.526;24.612;2023-09-19T04:57:44;97285.72;;;15.15;68.27
75146;BME280;63641;46.526;24.612;2023-09-19T05:00:16;97278.03;;;15.17;68.43
75146;BME280;63641;46.526;24.612;2023-09-19T05:02:48;97280.13;;;15.20;68.53
75146;BME280;63641;46.526;24.612;2023-09-19T05:05:15;97280.28;;;15.24;68.37
75146;BME280;63641;46.526;24.612;2023-09-19T05:07:44;97279.69;;;15.27;68.21
75146;BME280;63641;46.526;24.612;2023-09-19T05:10:11;97270.59;;;15.32;68.30
75146;BME280;63641;46.526;24.612;2023-09-19T05:12:39;97275.38;;;15.35;68.60
75146;BME280;63641;46.526;24.612;2023-09-19T05:15:07;97260.50;;;15.41;68.82
75146;BME280;63641;46.526;24.612;2023-09-19T05:17:35;97253.13;;;15.41;68.92
75146;BME280;63641;46.526;24.612;2023-09-19T05:20:03;97233.38;;;15.36;68.98
75146;BME280;63641;46.526;24.612;2023-09-19T05:23:01;97253.66;;;15.52;69.21
75146;BME280;63641;46.526;24.612;2023-09-19T05:25:31;97255.59;;;15.60;68.72
75146;BME280;63641;46.526;24.612;2023-09-19T05:27:58;97248.72;;;15.63;68.50
75146;BME280;63641;46.526;24.612;2023-09-19T05:30:26;97241.09;;;15.74;68.57
75146;BME280;63641;46.526;24.612;2023-09-19T05:32:56;97238.84;;;15.76;68.39
75146;BME280;63641;46.526;24.612;2023-09-19T05:35:24;97250.75;;;15.88;68.28
75146;BME280;63641;46.526;24.612;2023-09-19T05:37:51;97248.19;;;15.92;67.84
75146;BME280;63641;46.526;24.612;2023-09-19T05:40:18;97225.06;;;15.89;67.98
75146;BME280;63641;46.526;24.612;2023-09-19T05:42:46;97239.38;;;16.04;68.02
75146;BME280;63641;46.526;24.612;2023-09-19T05:45:13;97229.44;;;15.99;67.86
75146;BME280;63641;46.526;24.612;2023-09-19T05:47:40;97224.31;;;16.06;67.86
75146;BME280;63641;46.526;24.612;2023-09-19T05:50:12;97231.22;;;16.21;68.19
75146;BME280;63641;46.526;24.612;2023-09-19T05:52:39;97226.56;;;16.22;68.15
75146;BME280;63641;46.526;24.612;2023-09-19T05:55:07;97231.88;;;16.27;68.13
75146;BME280;63641;46.526;24.612;2023-09-19T05:57:34;97230.09;;;16.31;67.60
75146;BME280;63641;46.526;24.612;2023-09-19T06:00:01;97220.31;;;16.30;67.53
75146;BME280;63641;46.526;24.612;2023-09-19T06:02:31;97224.31;;;16.41;67.19
75146;BME280;63641;46.526;24.612;2023-09-19T06:04:59;97213.41;;;16.41;67.07
75146;BME280;63641;46.526;24.612;2023-09-19T06:07:26;97215.00;;;16.42;66.65
75146;BME280;63641;46.526;24.612;2023-09-19T06:09:56;97212.75;;;16.44;66.18
75146;BME280;63641;46.526;24.612;2023-09-19T06:12:22;97208.56;;;16.38;65.84
75146;BME280;63641;46.526;24.612;2023-09-19T06:14:49;97217.25;;;16.40;65.50
75146;BME280;63641;46.526;24.612;2023-09-19T06:17:16;97209.72;;;16.37;65.35
75146;BME280;63641;46.526;24.612;2023-09-19T06:19:43;97214.69;;;16.43;65.57
75146;BME280;63641;46.526;24.612;2023-09-19T06:22:15;97226.25;;;16.49;65.20
75146;BME280;63641;46.526;24.612;2023-09-19T06:24:45;97220.78;;;16.49;65.01
75146;BME280;63641;46.526;24.612;2023-09-19T06:27:13;97223.03;;;16.56;64.97
75146;BME280;63641;46.526;24.612;2023-09-19T06:29:40;97208.41;;;16.52;64.70
75146;BME280;63641;46.526;24.612;2023-09-19T06:32:10;97212.75;;;16.61;64.76
75146;BME280;63641;46.526;24.612;2023-09-19T06:34:37;97224.31;;;16.67;64.43
75146;BME280;63641;46.526;24.612;2023-09-19T06:37:05;97220.28;;;16.73;64.13
75146;BME280;63641;46.526;24.612;2023-09-19T06:39:32;97226.41;;;16.79;64.15
75146;BME280;63641;46.526;24.612;2023-09-19T06:41:59;97217.75;;;16.77;64.51
75146;BME280;63641;46.526;24.612;2023-09-19T06:44:28;97233.81;;;16.87;64.63
75146;BME280;63641;46.526;24.612;2023-09-19T06:46:56;97238.63;;;16.90;64.77
75146;BME280;63641;46.526;24.612;2023-09-19T06:49:23;97220.13;;;16.96;64.89
75146;BME280;63641;46.526;24.612;2023-09-19T06:51:49;97217.53;;;16.99;65.05
75146;BME280;63641;46.526;24.612;2023-09-19T06:54:16;97205.00;;;16.98;64.91
75146;BME280;63641;46.526;24.612;2023-09-19T06:56:44;97197.28;;;17.00;64.29
75146;BME280;63641;46.526;24.612;2023-09-19T06:59:11;97208.66;;;17.11;63.55
75146;BME280;63641;46.526;24.612;2023-09-19T07:01:40;97218.16;;;17.13;63.32
75146;BME280;63641;46.526;24.612;2023-09-19T07:04:08;97220.53;;;17.15;63.12
75146;BME280;63641;46.526;24.612;2023-09-19T07:06:35;97230.34;;;17.25;63.10
75146;BME280;63641;46.526;24.612;2023-09-19T07:09:02;97234.00;;;17.29;62.99
75146;BME280;63641;46.526;24.612;2023-09-19T07:11:29;97222.25;;;17.37;63.29
75146;BME280;63641;46.526;24.612;2023-09-19T07:13:57;97213.53;;;17.44;63.08
75146;BME280;63641;46.526;24.612;2023-09-19T07:16:25;97222.03;;;17.51;62.85
75146;BME280;63641;46.526;24.612;2023-09-19T07:18:56;97231.81;;;17.60;62.33
75146;BME280;63641;46.526;24.612;2023-09-19T07:21:23;97236.44;;;17.69;62.05
75146;BME280;63641;46.526;24.612;2023-09-19T07:23:50;97235.94;;;17.75;61.60
75146;BME280;63641;46.526;24.612;2023-09-19T07:26:18;97243.75;;;17.85;61.45
75146;BME280;63641;46.526;24.612;2023-09-19T07:28:45;97239.41;;;17.93;61.32
75146;BME280;63641;46.526;24.612;2023-09-19T07:31:12;97230.97;;;17.98;60.56
75146;BME280;63641;46.526;24.612;2023-09-19T07:33:40;97241.06;;;18.06;60.61
75146;BME280;63641;46.526;24.612;2023-09-19T07:36:10;97234.28;;;18.13;60.46
75146;BME280;63641;46.526;24.612;2023-09-19T07:38:37;97240.84;;;18.20;60.32
75146;BME280;63641;46.526;24.612;2023-09-19T07:41:04;97222.59;;;18.24;60.21
75146;BME280;63641;46.526;24.612;2023-09-19T07:43:31;97225.47;;;18.28;60.25
75146;BME280;63641;46.526;24.612;2023-09-19T07:46:04;97217.25;;;18.28;59.90
75146;BME280;63641;46.526;24.612;2023-09-19T07:48:34;97232.34;;;18.34;60.33
75146;BME280;63641;46.526;24.612;2023-09-19T07:51:03;97227.81;;;18.38;60.23
75146;BME280;63641;46.526;24.612;2023-09-19T07:53:30;97233.56;;;18.45;59.97
75146;BME280;63641;46.526;24.612;2023-09-19T07:56:08;97229.72;;;18.58;59.81
75146;BME280;63641;46.526;24.612;2023-09-19T07:58:35;97230.13;;;18.69;59.53
75146;BME280;63641;46.526;24.612;2023-09-19T08:03:31;97225.56;;;18.94;59.35
75146;BME280;63641;46.526;24.612;2023-09-19T08:05:59;97221.59;;;19.04;58.77
75146;BME280;63641;46.526;24.612;2023-09-19T08:08:27;97231.25;;;19.22;58.50
75146;BME280;63641;46.526;24.612;2023-09-19T08:10:55;97236.88;;;19.38;58.11
75146;BME280;63641;46.526;24.612;2023-09-19T08:13:25;97229.00;;;19.49;57.71
75146;BME280;63641;46.526;24.612;2023-09-19T08:15:52;97231.97;;;19.56;57.46
75146;BME280;63641;46.526;24.612;2023-09-19T08:18:19;97245.63;;;19.65;57.30
75146;BME280;63641;46.526;24.612;2023-09-19T08:20:50;97237.13;;;19.70;56.98
75146;BME280;63641;46.526;24.612;2023-09-19T08:23:18;97246.75;;;19.76;56.98
75146;BME280;63641;46.526;24.612;2023-09-19T08:25:47;97233.03;;;19.76;56.69
75146;BME280;63641;46.526;24.612;2023-09-19T08:28:14;97232.81;;;19.81;57.01
75146;BME280;63641;46.526;24.612;2023-09-19T08:30:45;97248.59;;;19.84;57.42
75146;BME280;63641;46.526;24.612;2023-09-19T08:33:12;97247.09;;;19.87;57.07
75146;BME280;63641;46.526;24.612;2023-09-19T08:35:42;97245.41;;;19.82;56.72
75146;BME280;63641;46.526;24.612;2023-09-19T08:38:09;97241.50;;;19.83;56.50
75146;BME280;63641;46.526;24.612;2023-09-19T08:40:40;97251.00;;;19.86;56.06
75146;BME280;63641;46.526;24.612;2023-09-19T08:43:09;97250.22;;;19.85;56.21
75146;BME280;63641;46.526;24.612;2023-09-19T08:45:35;97262.09;;;19.89;56.00
75146;BME280;63641;46.526;24.612;2023-09-19T08:48:16;97263.81;;;19.94;55.93
75146;BME280;63641;46.526;24.612;2023-09-19T08:50:54;97263.44;;;19.95;55.70
75146;BME280;63641;46.526;24.612;2023-09-19T08:56:07;97277.53;;;20.06;55.73
75146;BME280;63641;46.526;24.612;2023-09-19T08:58:49;97266.53;;;20.06;55.78
75146;BME280;63641;46.526;24.612;2023-09-19T09:01:18;97274.00;;;20.18;55.64
75146;BME280;63641;46.526;24.612;2023-09-19T09:03:52;97274.75;;;20.31;55.26
75146;BME280;63641;46.526;24.612;2023-09-19T09:06:24;97273.63;;;20.32;54.81
75146;BME280;63641;46.526;24.612;2023-09-19T09:08:51;97279.22;;;20.35;54.79
75146;BME280;63641;46.526;24.612;2023-09-19T09:11:19;97284.94;;;20.42;54.58
75146;BME280;63641;46.526;24.612;2023-09-19T09:13:47;97284.72;;;20.47;54.29
75146;BME280;63641;46.526;24.612;2023-09-19T09:16:14;97283.69;;;20.52;53.82
75146;BME280;63641;46.526;24.612;2023-09-19T09:18:46;97294.00;;;20.55;53.68
75146;BME280;63641;46.526;24.612;2023-09-19T09:21:25;97295.22;;;20.58;53.52
75146;BME280;63641;46.526;24.612;2023-09-19T09:23:51;97297.66;;;20.59;53.45
75146;BME280;63641;46.526;24.612;2023-09-19T09:29:05;97307.03;;;20.70;53.70
75146;BME280;63641;46.526;24.612;2023-09-19T09:31:32;97314.31;;;20.79;53.43
75146;BME280;63641;46.526;24.612;2023-09-19T09:33:59;97310.88;;;20.82;53.01
75146;BME280;63641;46.526;24.612;2023-09-19T09:36:37;97308.66;;;20.87;53.65
75146;BME280;63641;46.526;24.612;2023-09-19T09:39:04;97311.31;;;20.84;53.42
75146;BME280;63641;46.526;24.612;2023-09-19T09:41:51;97322.41;;;20.87;53.21
75146;BME280;63641;46.526;24.612;2023-09-19T09:44:18;97327.59;;;20.89;53.40
75146;BME280;63641;46.526;24.612;2023-09-19T09:46:47;97328.75;;;20.88;53.55
75146;BME280;63641;46.526;24.612;2023-09-19T09:49:25;97334.16;;;20.84;53.33
75146;BME280;63641;46.526;24.612;2023-09-19T09:52:02;97347.44;;;20.82;53.29
75146;BME280;63641;46.526;24.612;2023-09-19T09:54:37;97346.63;;;20.82;53.18
75146;BME280;63641;46.526;24.612;2023-09-19T09:57:08;97342.63;;;20.79;53.03
75146;BME280;63641;46.526;24.612;2023-09-19T09:59:49;97349.84;;;20.71;53.43
75146;BME280;63641;46.526;24.612;2023-09-19T10:02:18;97352.53;;;20.56;54.15
75146;BME280;63641;46.526;24.612;2023-09-19T10:04:52;97350.44;;;20.40;54.60
75146;BME280;63641;46.526;24.612;2023-09-19T10:07:28;97354.56;;;20.22;55.47
75146;BME280;63641;46.526;24.612;2023-09-19T10:10:01;97359.47;;;20.16;56.45
75146;BME280;63641;46.526;24.612;2023-09-19T10:12:45;97363.94;;;20.09;57.41
75146;BME280;63641;46.526;24.612;2023-09-19T10:15:16;97363.28;;;19.99;57.94
75146;BME280;63641;46.526;24.612;2023-09-19T10:17:45;97373.53;;;19.90;58.57
75146;BME280;63641;46.526;24.612;2023-09-19T10:20:14;97361.88;;;19.81;59.31
75146;BME280;63641;46.526;24.612;2023-09-19T10:23:09;97369.41;;;19.84;60.12
75146;BME280;63641;46.526;24.612;2023-09-19T10:25:38;97365.16;;;19.74;60.84
75146;BME280;63641;46.526;24.612;2023-09-19T10:28:07;97370.53;;;19.71;61.73
75146;BME280;63641;46.526;24.612;2023-09-19T10:30:47;97372.13;;;19.72;62.07
75146;BME280;63641;46.526;24.612;2023-09-19T10:33:17;97370.72;;;19.66;62.68
75146;BME280;63641;46.526;24.612;2023-09-19T10:35:46;97359.94;;;19.61;63.21
75146;BME280;63641;46.526;24.612;2023-09-19T10:38:17;97368.16;;;19.48;63.63
75146;BME280;63641;46.526;24.612;2023-09-19T10:40:49;97363.84;;;19.26;63.68
75146;BME280;63641;46.526;24.612;2023-09-19T10:43:18;97368.81;;;19.12;64.46
75146;BME280;63641;46.526;24.612;2023-09-19T10:45:45;97368.28;;;18.98;65.16
75146;BME280;63641;46.526;24.612;2023-09-19T10:48:16;97361.91;;;18.85;65.24
75146;BME280;63641;46.526;24.612;2023-09-19T10:51:08;97364.84;;;18.80;64.93
75146;BME280;63641;46.526;24.612;2023-09-19T10:53:52;97366.59;;;18.85;64.46
75146;BME280;63641;46.526;24.612;2023-09-19T10:56:27;97359.66;;;18.87;64.55
75146;BME280;63641;46.526;24.612;2023-09-19T10:59:09;97346.81;;;18.79;65.33
75146;BME280;63641;46.526;24.612;2023-09-19T11:01:49;97350.00;;;18.81;65.91
75146;BME280;63641;46.526;24.612;2023-09-19T11:04:31;97364.13;;;18.71;66.48
75146;BME280;63641;46.526;24.612;2023-09-19T11:07:10;97354.66;;;18.59;67.03
75146;BME280;63641;46.526;24.612;2023-09-19T11:09:50;97345.03;;;18.53;67.36
75146;BME280;63641;46.526;24.612;2023-09-19T11:26:49;97305.84;;;18.02;69.51
75146;BME280;63641;46.526;24.612;2023-09-19T11:29:26;97311.81;;;18.04;70.03
75146;BME280;63641;46.526;24.612;2023-09-19T11:31:53;97299.28;;;17.95;70.12
75146;BME280;63641;46.526;24.612;2023-09-19T11:42:54;97313.50;;;17.71;71.02
75146;BME280;63641;46.526;24.612;2023-09-19T11:48:14;97313.41;;;17.58;71.23
75146;BME280;63641;46.526;24.612;2023-09-19T11:50:42;97302.78;;;17.57;71.32
75146;BME280;63641;46.526;24.612;2023-09-19T11:53:11;97298.78;;;17.54;71.61
75146;BME280;63641;46.526;24.612;2023-09-19T11:55:39;97309.38;;;17.56;71.90
75146;BME280;63641;46.526;24.612;2023-09-19T11:58:08;97297.19;;;17.53;72.00
75146;BME280;63641;46.526;24.612;2023-09-19T12:00:38;97286.22;;;17.53;71.87
75146;BME280;63641;46.526;24.612;2023-09-19T12:03:08;97277.22;;;17.53;72.24
75146;BME280;63641;46.526;24.612;2023-09-19T12:05:40;97246.69;;;17.42;72.24
75146;BME280;63641;46.526;24.612;2023-09-19T12:08:07;97260.50;;;17.46;72.41
75146;BME280;63641;46.526;24.612;2023-09-19T12:10:48;97264.56;;;17.39;72.55
75146;BME280;63641;46.526;24.612;2023-09-19T12:13:17;97282.72;;;17.44;72.64
75146;BME280;63641;46.526;24.612;2023-09-19T12:15:45;97289.13;;;17.48;72.80
75146;BME280;63641;46.526;24.612;2023-09-19T12:18:27;97291.72;;;17.53;72.88
75146;BME280;63641;46.526;24.612;2023-09-19T12:20:55;97290.38;;;17.59;72.78
75146;BME280;63641;46.526;24.612;2023-09-19T12:23:22;97284.91;;;17.59;72.87
75146;BME280;63641;46.526;24.612;2023-09-19T12:25:49;97294.53;;;17.66;73.08
75146;BME280;63641;46.526;24.612;2023-09-19T12:28:20;97293.25;;;17.72;73.05
75146;BME280;63641;46.526;24.612;2023-09-19T12:30:48;97291.44;;;17.84;73.19
75146;BME280;63641;46.526;24.612;2023-09-19T12:33:19;97289.47;;;17.94;73.08
75146;BME280;63641;46.526;24.612;2023-09-19T12:35:47;97284.59;;;17.99;72.93
75146;BME280;63641;46.526;24.612;2023-09-19T12:38:27;97287.44;;;18.12;72.93
75146;BME280;63641;46.526;24.612;2023-09-19T12:41:03;97281.63;;;18.13;72.87
75146;BME280;63641;46.526;24.612;2023-09-19T12:43:30;97270.44;;;18.27;72.79
75146;BME280;63641;46.526;24.612;2023-09-19T12:45:59;97261.34;;;18.35;72.88
75146;BME280;63641;46.526;24.612;2023-09-19T12:48:27;97267.38;;;18.49;72.96
75146;BME280;63641;46.526;24.612;2023-09-19T12:51:08;97256.47;;;18.62;72.92
75146;BME280;63641;46.526;24.612;2023-09-19T12:53:44;97255.75;;;18.73;72.66
75146;BME280;63641;46.526;24.612;2023-09-19T12:56:14;97255.34;;;18.83;72.44
75146;BME280;63641;46.526;24.612;2023-09-19T12:58:56;97253.78;;;18.95;72.10
75146;BME280;63641;46.526;24.612;2023-09-19T13:01:24;97250.50;;;19.01;71.97
75146;BME280;63641;46.526;24.612;2023-09-19T13:06:51;97244.25;;;19.13;71.29
75146;BME280;63641;46.526;24.612;2023-09-19T13:09:20;97245.50;;;19.16;71.21
75146;BME280;63641;46.526;24.612;2023-09-19T13:11:48;97245.50;;;19.16;71.12
75146;BME280;63641;46.526;24.612;2023-09-19T13:17:08;97243.81;;;19.23;71.34
75146;BME280;63641;46.526;24.612;2023-09-19T13:19:49;97245.34;;;19.33;71.14
75146;BME280;63641;46.526;24.612;2023-09-19T13:22:43;97241.56;;;19.38;70.97
75146;BME280;63641;46.526;24.612;2023-09-19T13:25:16;97240.66;;;19.46;70.78
75146;BME280;63641;46.526;24.612;2023-09-19T13:27:48;97238.59;;;19.55;70.92
75146;BME280;63641;46.526;24.612;2023-09-19T13:30:18;97236.69;;;19.68;70.69
75146;BME280;63641;46.526;24.612;2023-09-19T13:32:45;97224.69;;;19.72;70.46
75146;BME280;63641;46.526;24.612;2023-09-19T13:35:14;97227.34;;;19.81;70.17
75146;BME280;63641;46.526;24.612;2023-09-19T13:37:42;97226.72;;;19.88;69.95
75146;BME280;63641;46.526;24.612;2023-09-19T13:40:12;97224.56;;;19.93;69.67
75146;BME280;63641;46.526;24.612;2023-09-19T13:42:40;97230.28;;;20.00;69.30
75146;BME280;63641;46.526;24.612;2023-09-19T13:45:08;97215.41;;;20.01;68.87
75146;BME280;63641;46.526;24.612;2023-09-19T13:47:39;97217.44;;;20.17;68.46
75146;BME280;63641;46.526;24.612;2023-09-19T13:50:07;97208.50;;;20.20;68.26